createdAt,value
2019-05-12T00:04:22.837Z,64.05
2019-05-12T00:09:28.251Z,63.80
2019-05-12T00:14:32.455Z,63.80
2019-05-12T00:19:37.782Z,63.86
2019-05-12T00:24:41.983Z,64.47
2019-05-12T00:29:48.385Z,63.89
2019-05-12T00:34:51.793Z,64.42
2019-05-12T00:39:58.190Z,64.36
2019-05-12T00:45:01.589Z,64.10
2019-05-12T00:50:08.029Z,63.97
2019-05-12T00:55:12.750Z,64.14
2019-05-12T01:00:17.899Z,64.14
2019-05-12T01:05:22.066Z,64.49
2019-05-12T01:10:28.299Z,64.49
2019-05-12T01:15:32.114Z,64.29
2019-05-12T01:20:38.555Z,64.25
2019-05-12T01:25:42.084Z,64.45
2019-05-12T01:30:47.940Z,64.76
2019-05-12T01:35:51.858Z,64.90
2019-05-12T01:40:58.213Z,64.43
2019-05-12T01:46:01.624Z,64.84
2019-05-12T01:51:05.722Z,65.42
2019-05-12T01:56:09.867Z,64.82
2019-05-12T02:01:13.955Z,64.62
2019-05-12T02:06:18.488Z,64.90
2019-05-12T02:11:34.920Z,64.96
2019-05-12T02:16:38.987Z,64.73
2019-05-12T02:21:43.111Z,65.31
2019-05-12T02:26:48.682Z,65.38
2019-05-12T02:31:52.906Z,65.08
2019-05-12T02:36:56.948Z,65.62
2019-05-12T02:42:04.920Z,65.73
2019-05-12T02:47:07.142Z,65.74
2019-05-12T02:52:11.547Z,65.54
2019-05-12T02:57:15.909Z,65.77
2019-05-12T03:02:24.411Z,65.47
2019-05-12T03:07:29.182Z,65.61
2019-05-12T03:12:34.478Z,65.61
2019-05-12T03:17:38.685Z,65.38
2019-05-12T03:22:44.774Z,65.60
2019-05-12T03:27:48.551Z,65.50
2019-05-12T03:32:57.509Z,65.87
2019-05-12T03:37:58.321Z,66.28
2019-05-12T03:43:05.071Z,66.29
2019-05-12T03:48:08.174Z,66.29
2019-05-12T03:53:15.123Z,66.07
2019-05-12T03:58:18.047Z,66.26
2019-05-12T04:03:24.626Z,66.26
2019-05-12T04:08:27.883Z,66.32
2019-05-12T04:13:34.188Z,66.09
2019-05-12T04:18:37.609Z,66.39
2019-05-12T04:23:44.353Z,66.60
2019-05-12T04:28:47.363Z,66.58
2019-05-12T04:33:54.484Z,66.49
2019-05-12T04:38:57.131Z,67.05
2019-05-12T04:44:01.158Z,66.74
2019-05-12T04:49:05.731Z,66.57
2019-05-12T04:54:09.916Z,66.73
2019-05-12T04:59:15.784Z,66.73
2019-05-12T05:04:19.667Z,66.84
2019-05-12T05:09:24.913Z,65.80
2019-05-12T05:14:29.023Z,65.74
2019-05-12T05:19:33.759Z,66.65
2019-05-12T05:24:40.205Z,66.07
2019-05-12T05:29:44.197Z,66.68
2019-05-12T05:34:53.689Z,66.25
2019-05-12T05:39:54.086Z,65.83
2019-05-12T05:44:58.064Z,65.83
2019-05-12T05:50:04.624Z,66.11
2019-05-12T05:55:14.767Z,66.11
2019-05-12T06:00:22.872Z,66.34
2019-05-12T06:05:25.262Z,66.02
2019-05-12T06:10:34.824Z,66.14
2019-05-12T06:15:35.637Z,66.26
2019-05-12T06:20:38.285Z,65.51
2019-05-12T06:25:49.088Z,66.29
2019-05-12T06:30:50.260Z,66.34
2019-05-12T06:35:54.398Z,66.25
2019-05-12T06:40:58.532Z,66.44
2019-05-12T06:46:03.645Z,66.28
2019-05-12T06:51:09.118Z,66.55
2019-05-12T06:56:15.483Z,65.85
2019-05-12T07:01:19.890Z,66.26
2019-05-12T07:06:24.790Z,56.76
2019-05-12T07:11:41.666Z,56.76
2019-05-12T07:16:34.828Z,56.13
2019-05-12T07:21:38.917Z,55.90
2019-05-12T07:26:44.251Z,55.65
2019-05-12T07:31:49.086Z,56.42
2019-05-12T07:36:55.817Z,56.42
2019-05-12T07:42:03.629Z,57.20
2019-05-12T07:47:07.803Z,57.20
2019-05-12T07:52:13.783Z,57.13
2019-05-12T07:57:17.897Z,56.90
2019-05-12T08:02:25.503Z,56.90
2019-05-12T08:07:29.886Z,57.56
2019-05-12T08:12:34.049Z,57.86
2019-05-12T08:17:38.184Z,57.86
2019-05-12T08:22:43.826Z,57.74
2019-05-12T08:27:51.334Z,57.72
2019-05-12T08:33:02.064Z,57.72
2019-05-12T08:37:59.729Z,57.48
2019-05-12T08:43:08.016Z,57.58
2019-05-12T08:48:17.119Z,57.58
2019-05-12T08:53:21.039Z,57.21
2019-05-12T08:58:31.358Z,57.28
2019-05-12T09:03:30.502Z,56.64
2019-05-12T09:08:35.941Z,56.25
2019-05-12T09:13:40.232Z,56.75
2019-05-12T09:18:44.410Z,56.92
2019-05-12T09:23:48.423Z,56.92
2019-05-12T09:28:54.277Z,56.66
2019-05-12T09:34:03.484Z,56.66
2019-05-12T09:39:06.220Z,56.62
2019-05-12T09:44:10.224Z,56.62
2019-05-12T09:49:14.365Z,55.99
2019-05-12T09:54:18.653Z,55.80
2019-05-12T09:59:25.622Z,55.44
2019-05-12T10:04:32.952Z,56.15
2019-05-12T10:09:36.658Z,56.15
2019-05-12T10:14:45.672Z,55.72
2019-05-12T10:19:48.396Z,55.88
2019-05-12T10:24:58.317Z,55.88
2019-05-12T10:30:05.573Z,53.61
2019-05-12T10:35:04.526Z,56.00
2019-05-12T10:40:10.022Z,56.56
2019-05-12T10:45:16.944Z,56.77
2019-05-12T10:50:23.265Z,58.13
2019-05-12T10:55:26.545Z,59.41
2019-05-12T11:00:30.881Z,58.97
2019-05-12T11:05:35.054Z,58.25
2019-05-12T11:10:39.129Z,58.25
2019-05-12T11:15:46.169Z,57.92
2019-05-12T11:20:49.129Z,58.11
2019-05-12T11:25:53.437Z,57.41
2019-05-12T11:30:57.686Z,56.75
2019-05-12T11:36:01.734Z,57.40
2019-05-12T11:41:09.981Z,57.40
2019-05-12T11:46:11.755Z,57.29
2019-05-12T11:51:15.809Z,56.98
2019-05-12T11:56:19.883Z,57.20
2019-05-12T12:01:25.533Z,57.10
2019-05-12T12:06:29.531Z,56.95
2019-05-12T12:11:34.266Z,56.54
2019-05-12T12:16:41.993Z,56.65
2019-05-12T12:21:48.007Z,56.65
2019-05-12T12:26:50.128Z,56.72
2019-05-12T12:31:54.956Z,56.06
2019-05-12T12:36:58.950Z,56.06
2019-05-12T12:42:04.394Z,55.87
2019-05-12T12:47:08.520Z,55.71
2019-05-12T12:52:13.740Z,55.59
2019-05-12T12:57:19.208Z,54.97
2019-05-12T13:02:24.703Z,55.42
2019-05-12T13:07:29.026Z,54.42
2019-05-12T13:12:35.718Z,55.70
2019-05-12T13:17:41.819Z,55.68
2019-05-12T13:22:44.658Z,55.64
2019-05-12T13:27:48.655Z,55.23
2019-05-12T13:32:53.870Z,55.64
2019-05-12T13:38:00.470Z,55.82
2019-05-12T13:43:03.950Z,55.10
2019-05-12T13:48:09.694Z,55.88
2019-05-12T13:53:14.096Z,55.89
2019-05-12T13:58:18.452Z,55.56
2019-05-12T14:03:22.468Z,55.73
2019-05-12T14:08:26.540Z,55.28
2019-05-12T14:13:30.614Z,55.54
2019-05-12T14:18:36.410Z,55.91
2019-05-12T14:23:40.504Z,55.37
2019-05-12T14:28:49.322Z,55.40
2019-05-12T14:33:50.389Z,55.28
2019-05-12T14:38:54.394Z,55.50
2019-05-12T14:44:01.697Z,55.04
2019-05-12T14:49:04.236Z,55.28
2019-05-12T14:54:08.317Z,54.95
2019-05-12T14:59:14.436Z,54.54
2019-05-12T15:04:19.466Z,54.86
2019-05-12T15:09:24.659Z,54.87
2019-05-12T15:14:32.532Z,54.87
2019-05-12T15:19:34.701Z,54.90
2019-05-12T15:24:38.689Z,54.90
2019-05-12T15:29:42.827Z,55.48
2019-05-12T15:34:46.939Z,56.13
2019-05-12T15:39:53.332Z,56.08
2019-05-12T15:44:56.693Z,56.08
2019-05-12T15:50:00.714Z,56.86
2019-05-12T15:55:05.150Z,56.98
2019-05-12T16:00:09.742Z,57.04
2019-05-12T16:05:14.819Z,57.11
2019-05-12T16:10:20.193Z,57.42
2019-05-12T16:15:24.268Z,57.42
2019-05-12T16:20:28.289Z,57.77
2019-05-12T16:25:34.161Z,57.59
2019-05-12T16:30:38.264Z,57.73
2019-05-12T16:35:44.181Z,51.72
2019-05-12T16:40:49.697Z,53.90
2019-05-12T16:45:53.929Z,53.00
2019-05-12T16:50:57.935Z,53.00
2019-05-12T16:56:04.235Z,53.29
2019-05-12T17:01:07.881Z,51.72
2019-05-12T17:06:13.712Z,51.78
2019-05-12T17:11:26.452Z,51.20
2019-05-12T17:16:23.606Z,50.56
2019-05-12T17:21:27.626Z,50.33
2019-05-12T17:26:33.445Z,50.00
2019-05-12T17:31:37.511Z,50.18
2019-05-12T17:36:41.524Z,49.99
2019-05-12T17:41:46.628Z,49.23
2019-05-12T17:46:50.649Z,49.23
2019-05-12T17:51:57.209Z,48.75
2019-05-12T17:57:00.539Z,48.42
2019-05-12T18:02:05.709Z,48.59
2019-05-12T18:07:14.344Z,49.07
2019-05-12T18:12:16.253Z,48.05
2019-05-12T18:17:20.432Z,48.05
2019-05-12T18:22:24.432Z,48.65
2019-05-12T18:27:28.569Z,49.35
2019-05-12T18:32:32.563Z,49.88
2019-05-12T18:37:36.567Z,50.21
2019-05-12T18:42:40.633Z,50.21
2019-05-12T18:47:44.672Z,51.12
2019-05-12T18:52:48.681Z,51.43
2019-05-12T18:57:54.558Z,51.84
2019-05-12T19:02:59.583Z,52.25
2019-05-12T19:08:04.349Z,52.25
2019-05-12T19:13:08.457Z,52.99
2019-05-12T19:18:17.577Z,52.53
2019-05-12T19:23:18.191Z,52.61
2019-05-12T19:28:23.782Z,53.26
2019-05-12T19:33:28.111Z,53.63
2019-05-12T19:38:34.418Z,53.63
2019-05-12T19:43:39.171Z,53.54
2019-05-12T19:48:49.608Z,53.69
2019-05-12T19:53:49.393Z,53.62
2019-05-12T19:58:54.011Z,53.62
2019-05-12T20:03:58.271Z,54.58
2019-05-12T20:09:06.644Z,54.13
2019-05-12T20:14:09.960Z,54.70
2019-05-12T20:19:14.040Z,54.85
2019-05-12T20:24:18.120Z,54.05
2019-05-12T20:29:26.600Z,53.86
2019-05-12T20:34:27.912Z,54.52
2019-05-12T20:39:31.933Z,54.28
2019-05-12T20:44:36.015Z,54.45
2019-05-12T20:49:45.078Z,54.45
2019-05-12T20:54:49.253Z,54.65
2019-05-12T20:59:51.561Z,54.63
2019-05-12T21:05:00.878Z,55.01
2019-05-12T21:10:03.931Z,54.85
2019-05-12T21:15:16.465Z,54.95
2019-05-12T21:20:16.638Z,55.17
2019-05-12T21:25:19.219Z,55.43
2019-05-12T21:30:24.720Z,55.66
2019-05-12T21:35:32.094Z,55.75
2019-05-12T21:40:35.190Z,55.94
2019-05-12T21:45:39.296Z,55.94
2019-05-12T21:50:44.295Z,55.90
2019-05-12T21:55:48.485Z,56.13
2019-05-12T22:01:03.907Z,55.93
2019-05-12T22:06:14.800Z,56.15
2019-05-12T22:11:11.596Z,56.41
2019-05-12T22:16:15.055Z,56.32
2019-05-12T22:21:20.118Z,56.32
2019-05-12T22:26:24.235Z,56.32
2019-05-12T22:31:28.367Z,56.55
2019-05-12T22:36:33.660Z,56.86
2019-05-12T22:41:41.453Z,56.61
2019-05-12T22:46:43.689Z,57.10
2019-05-12T22:51:47.716Z,56.79
2019-05-12T22:56:55.359Z,56.76
2019-05-12T23:01:57.616Z,56.70
2019-05-12T23:07:01.721Z,57.29
2019-05-12T23:12:09.863Z,56.95
2019-05-12T23:17:13.710Z,57.08
2019-05-12T23:22:17.671Z,57.36
2019-05-12T23:27:25.252Z,57.50
2019-05-12T23:32:27.499Z,57.16
2019-05-12T23:37:38.413Z,57.70
2019-05-12T23:42:37.245Z,57.70
2019-05-12T23:47:43.819Z,57.73
2019-05-12T23:52:47.102Z,57.73
2019-05-12T23:57:53.550Z,57.56
